createdAt,value
2018-05-13T00:07:23.671Z,16.60
2018-05-13T00:09:50.679Z,16.60
2018-05-13T00:12:18.384Z,16.60
2018-05-13T00:14:45.359Z,16.70
2018-05-13T00:17:12.384Z,16.50
2018-05-13T00:19:39.371Z,15.90
2018-05-13T00:22:07.175Z,15.30
2018-05-13T00:24:35.039Z,15.40
2018-05-13T00:27:02.022Z,15.50
2018-05-13T00:32:07.517Z,15.00
2018-05-13T00:34:34.495Z,15.10
2018-05-13T00:37:01.476Z,15.30
2018-05-13T00:39:28.779Z,14.80
2018-05-13T00:41:55.758Z,14.70
2018-05-13T00:44:23.619Z,14.50
2018-05-13T00:46:50.678Z,14.50
2018-05-13T00:49:17.651Z,14.40
2018-05-13T00:51:44.631Z,14.40
2018-05-13T00:54:23.407Z,14.60
2018-05-13T00:56:50.393Z,14.50
2018-05-13T00:59:17.366Z,14.30
2018-05-13T01:01:44.690Z,14.50
2018-05-13T01:04:11.673Z,14.60
2018-05-13T01:06:38.653Z,14.70
2018-05-13T01:09:05.679Z,14.60
2018-05-13T01:11:32.665Z,14.70
2018-05-13T01:13:59.635Z,14.60
2018-05-13T01:16:26.653Z,14.60
2018-05-13T01:18:54.478Z,14.60
2018-05-13T01:21:21.469Z,14.60
2018-05-13T01:23:48.956Z,14.60
2018-05-13T01:26:16.775Z,13.90
2018-05-13T01:28:43.748Z,13.60
2018-05-13T01:33:37.838Z,13.50
2018-05-13T01:36:04.815Z,13.60
2018-05-13T01:38:31.829Z,13.40
2018-05-13T01:40:58.813Z,13.30
2018-05-13T01:43:25.797Z,13.20
2018-05-13T01:45:53.563Z,13.20
2018-05-13T01:48:20.545Z,13.20
2018-05-13T01:50:47.551Z,13.40
2018-05-13T01:53:14.573Z,13.50
2018-05-13T01:55:43.635Z,13.50
2018-05-13T02:03:20.258Z,13.20
2018-05-13T02:05:47.241Z,13.20
2018-05-13T02:08:15.208Z,13.20
2018-05-13T02:10:43.172Z,13.40
2018-05-13T02:13:10.148Z,13.50
2018-05-13T02:15:37.169Z,13.70
2018-05-13T02:18:04.734Z,13.70
2018-05-13T02:20:31.710Z,13.80
2018-05-13T02:22:58.739Z,13.90
2018-05-13T02:25:26.673Z,13.90
2018-05-13T02:27:53.652Z,13.80
2018-05-13T02:30:21.507Z,13.70
2018-05-13T02:35:16.376Z,13.50
2018-05-13T02:37:43.405Z,13.50
2018-05-13T02:40:10.389Z,13.50
2018-05-13T02:42:37.371Z,13.30
2018-05-13T02:45:05.142Z,13.20
2018-05-13T02:47:32.127Z,13.20
2018-05-13T02:49:59.112Z,13.10
2018-05-13T02:52:26.144Z,13.20
2018-05-13T02:57:20.182Z,13.40
2018-05-13T02:59:47.209Z,13.40
2018-05-13T03:02:14.187Z,13.30
2018-05-13T03:04:41.178Z,13.10
2018-05-13T03:07:08.214Z,12.90
2018-05-13T03:09:35.204Z,13.00
2018-05-13T03:12:02.190Z,13.00
2018-05-13T03:14:29.197Z,13.00
2018-05-13T03:16:56.417Z,12.90
2018-05-13T03:19:23.392Z,12.90
2018-05-13T03:26:58.640Z,12.70
2018-05-13T03:29:25.613Z,12.50
2018-05-13T03:34:31.664Z,12.60
2018-05-13T03:36:58.655Z,12.50
2018-05-13T03:39:25.635Z,12.60
2018-05-13T03:41:52.664Z,12.70
2018-05-13T03:44:19.639Z,12.50
2018-05-13T03:46:46.619Z,12.50
2018-05-13T03:49:13.633Z,12.40
2018-05-13T03:51:40.614Z,12.60
2018-05-13T03:54:07.604Z,12.70
2018-05-13T03:56:34.620Z,12.70
2018-05-13T03:59:01.613Z,12.60
2018-05-13T04:01:28.592Z,12.70
2018-05-13T04:03:55.597Z,12.70
2018-05-13T04:06:22.586Z,12.80
2018-05-13T04:09:01.542Z,12.80
2018-05-13T04:14:13.303Z,12.80
2018-05-13T04:16:40.279Z,12.70
2018-05-13T04:19:07.261Z,12.50
2018-05-13T04:21:34.303Z,12.50
2018-05-13T04:24:01.284Z,12.40
2018-05-13T04:26:28.265Z,12.30
2018-05-13T04:28:55.308Z,12.20
2018-05-13T04:33:49.358Z,12.20
2018-05-13T04:36:16.393Z,12.20
2018-05-13T04:38:43.376Z,12.30
2018-05-13T04:41:10.357Z,12.50
2018-05-13T04:43:37.393Z,12.40
2018-05-13T04:46:04.620Z,12.50
2018-05-13T04:48:32.533Z,12.70
2018-05-13T04:53:38.017Z,13.00
2018-05-13T04:56:05.027Z,13.10
2018-05-13T04:58:32.006Z,13.20
2018-05-13T05:00:58.986Z,13.30
2018-05-13T05:03:26.014Z,13.40
2018-05-13T05:05:55.996Z,13.60
2018-05-13T05:08:22.976Z,13.70
2018-05-13T05:10:49.991Z,13.50
2018-05-13T05:13:16.971Z,13.70
2018-05-13T05:15:43.954Z,13.70
2018-05-13T05:18:10.981Z,13.90
2018-05-13T05:20:37.962Z,14.00
2018-05-13T05:23:04.942Z,13.90
2018-05-13T05:25:31.957Z,14.10
2018-05-13T05:27:58.952Z,14.20
2018-05-13T05:30:25.941Z,14.30
2018-05-13T05:32:52.956Z,14.70
2018-05-13T05:35:19.929Z,14.10
2018-05-13T05:37:47.885Z,14.10
2018-05-13T05:40:14.894Z,14.20
2018-05-13T05:45:08.941Z,14.60
2018-05-13T05:47:35.966Z,14.60
2018-05-13T05:50:02.947Z,14.80
2018-05-13T05:52:29.927Z,14.70
2018-05-13T05:54:56.959Z,14.80
2018-05-13T05:57:23.938Z,15.00
2018-05-13T05:59:50.924Z,15.00
2018-05-13T06:02:17.937Z,15.40
2018-05-13T06:04:44.927Z,16.10
2018-05-13T06:07:11.911Z,16.10
2018-05-13T06:09:38.938Z,15.80
2018-05-13T06:12:05.919Z,15.80
2018-05-13T06:14:33.871Z,16.30
2018-05-13T06:19:39.365Z,16.50
2018-05-13T06:22:06.361Z,17.10
2018-05-13T06:24:33.335Z,17.10
2018-05-13T06:27:00.317Z,16.80
2018-05-13T06:29:27.336Z,17.40
2018-05-13T06:31:56.138Z,17.60
2018-05-13T06:36:50.149Z,17.30
2018-05-13T06:39:17.126Z,17.50
2018-05-13T06:41:44.102Z,17.20
2018-05-13T06:44:11.121Z,17.80
2018-05-13T06:46:39.676Z,18.30
2018-05-13T06:49:05.284Z,18.50
2018-05-13T06:51:32.389Z,18.00
2018-05-13T06:53:59.358Z,18.20
2018-05-13T06:56:26.348Z,17.90
2018-05-13T06:58:53.363Z,17.70
2018-05-13T07:01:20.340Z,18.00
2018-05-13T07:03:47.316Z,18.10
2018-05-13T07:06:16.090Z,18.60
2018-05-13T07:08:43.072Z,19.20
2018-05-13T07:11:10.070Z,19.30
2018-05-13T07:13:37.098Z,19.40
2018-05-13T07:16:04.071Z,19.50
2018-05-13T07:18:31.063Z,19.30
2018-05-13T07:20:58.899Z,19.70
2018-05-13T07:23:25.881Z,20.20
2018-05-13T07:28:21.293Z,20.90
2018-05-13T07:30:48.282Z,20.70
2018-05-13T07:33:15.266Z,20.90
2018-05-13T07:35:42.321Z,21.00
2018-05-13T07:38:09.306Z,20.60
2018-05-13T07:40:36.279Z,20.80
2018-05-13T07:45:41.757Z,21.00
2018-05-13T07:48:08.829Z,21.00
2018-05-13T07:50:35.756Z,21.00
2018-05-13T07:53:04.872Z,21.60
2018-05-13T07:57:59.085Z,22.20
2018-05-13T08:00:25.951Z,22.50
2018-05-13T08:02:53.000Z,22.20
2018-05-13T08:05:19.976Z,22.80
2018-05-13T08:07:46.956Z,22.90
2018-05-13T08:10:14.926Z,23.30
2018-05-13T08:15:08.976Z,23.30
2018-05-13T08:17:35.981Z,23.30
2018-05-13T08:20:02.955Z,23.20
2018-05-13T08:22:29.942Z,23.20
2018-05-13T08:24:56.950Z,23.20
2018-05-13T08:27:23.931Z,23.50
2018-05-13T08:29:50.918Z,23.50
2018-05-13T08:32:17.949Z,23.20
2018-05-13T08:34:44.925Z,23.40
2018-05-13T08:37:11.903Z,23.70
2018-05-13T08:39:38.923Z,24.40
2018-05-13T08:42:05.908Z,25.00
2018-05-13T08:44:32.879Z,24.70
2018-05-13T08:46:59.900Z,24.90
2018-05-13T08:49:26.884Z,25.30
2018-05-13T08:51:53.866Z,25.90
2018-05-13T08:54:20.870Z,25.20
2018-05-13T08:56:47.845Z,24.70
2018-05-13T08:59:14.823Z,25.20
2018-05-13T09:04:09.706Z,26.20
2018-05-13T09:06:36.678Z,26.60
2018-05-13T09:11:43.038Z,25.70
2018-05-13T09:14:10.128Z,26.30
2018-05-13T09:16:37.027Z,26.60
2018-05-13T09:19:04.711Z,26.30
2018-05-13T09:21:31.733Z,26.40
2018-05-13T09:23:58.720Z,26.40
2018-05-13T09:26:26.688Z,25.70
2018-05-13T09:28:53.628Z,25.40
2018-05-13T09:31:21.464Z,25.00
2018-05-13T09:33:48.445Z,25.40
2018-05-13T09:36:15.462Z,24.90
2018-05-13T09:38:42.439Z,24.60
2018-05-13T09:41:09.431Z,24.20
2018-05-13T09:43:36.437Z,24.10
2018-05-13T09:46:03.420Z,24.40
2018-05-13T09:51:12.460Z,24.00
2018-05-13T09:53:40.321Z,23.90
2018-05-13T09:56:07.298Z,23.70
2018-05-13T09:58:34.323Z,23.80
2018-05-13T10:03:28.366Z,23.30
2018-05-13T10:05:56.095Z,23.60
2018-05-13T10:08:23.899Z,23.50
2018-05-13T10:10:50.875Z,23.70
2018-05-13T10:13:17.899Z,23.80
2018-05-13T10:15:44.876Z,23.50
2018-05-13T10:18:11.853Z,23.90
2018-05-13T10:20:39.809Z,24.20
2018-05-13T10:23:06.795Z,24.20
2018-05-13T10:25:33.781Z,24.20
2018-05-13T10:28:00.810Z,24.20
2018-05-13T10:30:27.786Z,24.30
2018-05-13T10:32:54.790Z,24.40
2018-05-13T10:35:21.828Z,24.50
2018-05-13T10:37:48.815Z,24.40
2018-05-13T10:40:15.790Z,24.40
2018-05-13T10:42:42.794Z,24.50
2018-05-13T10:45:10.711Z,24.30
2018-05-13T10:47:37.693Z,24.20
2018-05-13T10:50:04.716Z,24.10
2018-05-13T10:52:31.685Z,24.00
2018-05-13T10:54:58.672Z,24.30
2018-05-13T10:57:25.692Z,24.40
2018-05-13T10:59:52.674Z,24.10
2018-05-13T11:02:19.661Z,24.00
2018-05-13T11:04:47.655Z,23.90
2018-05-13T11:07:15.523Z,24.00
2018-05-13T11:09:43.357Z,23.60
2018-05-13T11:12:10.388Z,23.90
2018-05-13T11:14:37.364Z,24.00
2018-05-13T11:19:42.838Z,24.00
2018-05-13T11:22:09.812Z,23.90
2018-05-13T11:24:36.792Z,24.00
2018-05-13T11:27:03.806Z,24.10
2018-05-13T11:29:30.779Z,24.10
2018-05-13T11:31:58.591Z,23.80
2018-05-13T11:34:25.593Z,24.00
2018-05-13T11:36:53.400Z,24.10
2018-05-13T11:39:20.389Z,24.20
2018-05-13T11:41:47.408Z,24.30
2018-05-13T11:44:14.379Z,24.40
2018-05-13T11:46:41.410Z,24.50
2018-05-13T11:49:08.357Z,24.50
2018-05-13T11:51:35.330Z,24.30
2018-05-13T11:54:02.310Z,24.40
2018-05-13T11:56:29.370Z,24.50
2018-05-13T11:58:56.298Z,24.70
2018-05-13T12:01:23.265Z,24.80
2018-05-13T12:03:50.267Z,24.90
2018-05-13T12:08:44.308Z,25.20
2018-05-13T12:11:11.317Z,25.50
2018-05-13T12:13:38.298Z,26.10
2018-05-13T12:16:05.275Z,26.30
2018-05-13T12:18:32.295Z,26.30
2018-05-13T12:23:37.268Z,26.50
2018-05-13T12:26:04.193Z,26.70
2018-05-13T12:28:31.175Z,26.90
2018-05-13T12:30:58.187Z,26.90
2018-05-13T12:33:25.179Z,26.70
2018-05-13T12:35:53.097Z,26.80
2018-05-13T12:38:20.112Z,26.90
2018-05-13T12:40:47.085Z,26.40
2018-05-13T12:43:14.057Z,26.10
2018-05-13T12:45:41.080Z,26.30
2018-05-13T12:48:08.055Z,27.00
2018-05-13T12:50:35.032Z,27.20
2018-05-13T12:53:02.054Z,27.40
2018-05-13T12:55:29.026Z,27.50
2018-05-13T12:57:56.117Z,27.80
2018-05-13T13:00:23.020Z,28.10
2018-05-13T13:02:50.009Z,27.70
2018-05-13T13:05:17.018Z,27.90
2018-05-13T13:07:44.960Z,28.10
2018-05-13T13:12:43.727Z,28.10
2018-05-13T13:15:10.824Z,28.20
2018-05-13T13:17:37.770Z,27.30
2018-05-13T13:20:04.809Z,27.20
2018-05-13T13:22:31.778Z,26.90
2018-05-13T13:24:58.768Z,27.00
2018-05-13T13:27:25.759Z,26.80
2018-05-13T13:29:52.776Z,27.00
2018-05-13T13:32:19.833Z,27.40
2018-05-13T13:34:46.753Z,27.70
2018-05-13T13:37:13.781Z,27.90
2018-05-13T13:39:40.778Z,27.50
2018-05-13T13:42:07.756Z,27.30
2018-05-13T13:47:13.253Z,27.40
2018-05-13T13:49:40.272Z,27.40
2018-05-13T13:52:07.247Z,27.40
2018-05-13T13:54:34.217Z,27.70
2018-05-13T13:57:01.236Z,27.70
2018-05-13T13:59:28.284Z,27.90
2018-05-13T14:01:55.185Z,28.20
2018-05-13T14:04:22.206Z,27.80
2018-05-13T14:06:50.016Z,27.90
2018-05-13T14:09:17.002Z,27.70
2018-05-13T14:11:46.713Z,27.30
2018-05-13T14:14:13.690Z,27.20
2018-05-13T14:16:40.662Z,26.80
2018-05-13T14:19:07.677Z,26.20
2018-05-13T14:21:34.668Z,25.50
2018-05-13T14:24:01.645Z,24.70
2018-05-13T14:26:29.485Z,24.80
2018-05-13T14:28:56.457Z,24.50
2018-05-13T14:31:23.762Z,23.70
2018-05-13T14:33:50.780Z,23.20
2018-05-13T14:36:17.771Z,23.00
2018-05-13T14:38:44.774Z,22.10
2018-05-13T14:41:11.853Z,22.30
2018-05-13T14:43:38.861Z,22.20
2018-05-13T14:46:05.853Z,21.90
2018-05-13T14:48:32.864Z,21.70
2018-05-13T14:50:59.851Z,21.50
2018-05-13T14:53:26.840Z,21.60
2018-05-13T14:55:54.815Z,21.70
2018-05-13T14:58:21.804Z,21.40
2018-05-13T15:00:48.789Z,21.10
2018-05-13T15:03:16.806Z,21.10
2018-05-13T15:05:43.784Z,21.30
2018-05-13T15:10:50.030Z,21.20
2018-05-13T15:13:17.022Z,20.70
2018-05-13T15:15:44.005Z,20.70
2018-05-13T15:18:11.017Z,20.90
2018-05-13T15:20:37.997Z,20.90
2018-05-13T15:23:04.985Z,21.00
2018-05-13T15:25:32.008Z,21.20
2018-05-13T15:27:58.977Z,20.90
2018-05-13T15:30:25.963Z,20.40
2018-05-13T15:32:52.988Z,20.40
2018-05-13T15:35:19.972Z,20.20
2018-05-13T15:37:46.953Z,20.30
2018-05-13T15:40:13.966Z,20.50
2018-05-13T15:42:41.078Z,20.30
2018-05-13T15:45:07.945Z,20.40
2018-05-13T15:47:34.956Z,20.30
2018-05-13T15:50:01.936Z,20.50
2018-05-13T15:52:28.916Z,20.40
2018-05-13T15:54:56.051Z,20.50
2018-05-13T15:57:22.945Z,20.60
2018-05-13T15:59:49.920Z,20.60
2018-05-13T16:02:16.952Z,20.60
2018-05-13T16:04:44.815Z,20.50
2018-05-13T16:07:12.760Z,20.50
2018-05-13T16:09:39.779Z,20.80
2018-05-13T16:12:06.782Z,20.90
2018-05-13T16:14:33.755Z,20.90
2018-05-13T16:17:00.797Z,20.90
2018-05-13T16:19:27.793Z,20.80
2018-05-13T16:24:22.705Z,21.00
2018-05-13T16:26:51.636Z,21.10
2018-05-13T16:29:16.675Z,21.30
2018-05-13T16:31:43.695Z,21.50
2018-05-13T16:34:11.425Z,21.60
2018-05-13T16:39:16.915Z,22.00
2018-05-13T16:41:43.892Z,22.00
2018-05-13T16:44:10.880Z,22.00
2018-05-13T16:46:37.888Z,22.10
2018-05-13T16:49:04.867Z,21.90
2018-05-13T16:51:31.841Z,21.90
2018-05-13T16:53:58.884Z,21.80
2018-05-13T16:56:25.892Z,21.80
2018-05-13T16:58:52.867Z,22.00
2018-05-13T17:01:19.875Z,21.80
2018-05-13T17:03:46.863Z,21.60
2018-05-13T17:06:13.830Z,21.90
2018-05-13T17:08:40.849Z,21.90
2018-05-13T17:11:07.824Z,21.90
2018-05-13T17:13:35.122Z,21.90
2018-05-13T17:16:02.144Z,22.00
2018-05-13T17:18:29.122Z,21.90
2018-05-13T17:20:56.120Z,21.80
2018-05-13T17:23:23.149Z,21.80
2018-05-13T17:25:50.118Z,21.90
2018-05-13T17:28:17.094Z,21.90
2018-05-13T17:30:44.111Z,21.70
2018-05-13T17:33:11.093Z,21.60
2018-05-13T17:35:38.075Z,21.50
2018-05-13T17:38:05.107Z,21.50
2018-05-13T17:40:32.092Z,21.70
2018-05-13T17:42:59.126Z,21.60
2018-05-13T17:45:26.155Z,21.70
2018-05-13T17:47:53.226Z,21.80
2018-05-13T17:50:20.108Z,21.90
2018-05-13T17:52:47.127Z,21.90
2018-05-13T17:55:14.108Z,22.00
2018-05-13T17:57:41.127Z,21.80
2018-05-13T18:00:08.110Z,21.40
2018-05-13T18:05:13.613Z,21.50
2018-05-13T18:10:08.541Z,21.00
2018-05-13T18:12:35.548Z,21.00
2018-05-13T18:15:02.523Z,21.00
2018-05-13T18:17:30.443Z,21.00
2018-05-13T18:19:57.473Z,20.90
2018-05-13T18:22:24.454Z,20.80
2018-05-13T18:24:51.494Z,20.80
2018-05-13T18:27:18.460Z,20.80
2018-05-13T18:29:45.439Z,20.70
2018-05-13T18:32:12.453Z,20.60
2018-05-13T18:34:40.239Z,20.70
2018-05-13T18:37:07.216Z,20.40
2018-05-13T18:39:35.157Z,20.50
2018-05-13T18:42:02.184Z,20.50
2018-05-13T18:44:30.213Z,20.60
2018-05-13T18:46:57.145Z,20.50
2018-05-13T18:49:24.166Z,20.50
2018-05-13T18:51:51.155Z,20.50
2018-05-13T18:54:18.899Z,20.50
2018-05-13T18:56:45.931Z,20.30
2018-05-13T18:59:12.940Z,20.20
2018-05-13T19:01:39.905Z,20.20
2018-05-13T19:04:08.472Z,20.30
2018-05-13T19:06:36.303Z,20.30
2018-05-13T19:11:48.064Z,20.20
2018-05-13T19:14:15.951Z,20.20
2018-05-13T19:16:43.884Z,20.10
2018-05-13T19:19:10.862Z,20.10
2018-05-13T19:21:37.892Z,20.00
2018-05-13T19:24:04.876Z,20.00
2018-05-13T19:26:31.871Z,20.10
2018-05-13T19:28:58.877Z,20.00
2018-05-13T19:31:25.885Z,20.10
2018-05-13T19:36:31.967Z,20.10
2018-05-13T19:38:59.914Z,20.10
2018-05-13T19:41:26.899Z,20.20
2018-05-13T19:43:53.931Z,20.10
2018-05-13T19:46:20.958Z,20.10
2018-05-13T19:48:47.965Z,20.10
2018-05-13T19:51:15.006Z,20.20
2018-05-13T19:53:42.019Z,20.20
2018-05-13T19:56:09.354Z,20.10
2018-05-13T19:58:37.345Z,20.10
2018-05-13T20:01:04.343Z,20.00
2018-05-13T20:03:31.484Z,20.00
2018-05-13T20:05:58.364Z,19.80
2018-05-13T20:08:25.350Z,19.80
2018-05-13T20:10:52.343Z,19.70
2018-05-13T20:13:19.362Z,19.60
2018-05-13T20:15:46.376Z,19.50
2018-05-13T20:18:13.698Z,19.60
2018-05-13T20:20:40.721Z,19.60
2018-05-13T20:23:19.458Z,19.70
2018-05-13T20:25:46.415Z,19.60
2018-05-13T20:28:13.412Z,19.60
2018-05-13T20:30:40.450Z,19.50
2018-05-13T20:33:07.511Z,19.40
2018-05-13T20:35:34.514Z,19.20
2018-05-13T20:40:28.656Z,19.20
2018-05-13T20:42:55.639Z,19.00
2018-05-13T20:47:49.714Z,19.00
2018-05-13T20:50:16.750Z,18.90
2018-05-13T20:52:43.731Z,18.80
2018-05-13T20:55:10.817Z,18.80
2018-05-13T21:00:16.975Z,18.70
2018-05-13T21:02:43.953Z,18.80
2018-05-13T21:05:10.990Z,18.80
2018-05-13T21:07:37.960Z,18.80
2018-05-13T21:10:04.950Z,18.70
2018-05-13T21:12:31.916Z,18.70
2018-05-13T21:14:58.928Z,18.70
2018-05-13T21:20:10.106Z,18.90
2018-05-13T21:22:37.100Z,19.00
2018-05-13T21:25:04.091Z,19.00
2018-05-13T21:27:31.111Z,18.90
2018-05-13T21:29:58.102Z,18.90
2018-05-13T21:32:25.084Z,18.90
2018-05-13T21:34:52.194Z,18.80
2018-05-13T21:37:19.105Z,18.80
2018-05-13T21:39:46.116Z,18.80
2018-05-13T21:42:13.151Z,18.70
2018-05-13T21:47:18.285Z,18.50
2018-05-13T21:49:45.281Z,18.70
2018-05-13T21:52:12.262Z,18.60
2018-05-13T21:54:39.361Z,18.50
2018-05-13T21:57:06.264Z,18.50
2018-05-13T21:59:33.265Z,18.50
2018-05-13T22:02:00.268Z,18.40
2018-05-13T22:04:27.247Z,18.30
2018-05-13T22:06:54.227Z,18.20
2018-05-13T22:09:21.260Z,18.20
2018-05-13T22:11:48.242Z,18.10
2018-05-13T22:14:15.220Z,18.30
2018-05-13T22:16:42.243Z,18.20
2018-05-13T22:19:09.236Z,18.10
2018-05-13T22:21:36.227Z,18.00
2018-05-13T22:24:03.659Z,17.90
2018-05-13T22:26:30.633Z,17.90
2018-05-13T22:28:57.619Z,17.90
2018-05-13T22:31:24.861Z,17.80
2018-05-13T22:33:51.880Z,17.70
2018-05-13T22:36:18.899Z,17.70
2018-05-13T22:38:45.947Z,17.70
2018-05-13T22:41:13.367Z,17.70
2018-05-13T22:43:40.431Z,17.80
2018-05-13T22:46:07.500Z,17.80
2018-05-13T22:48:34.486Z,17.80
2018-05-13T22:51:01.466Z,17.70
2018-05-13T22:55:55.552Z,17.70
2018-05-13T22:58:25.670Z,17.50
2018-05-13T23:00:52.675Z,17.50
2018-05-13T23:03:19.663Z,17.50
2018-05-13T23:13:25.764Z,17.60
2018-05-13T23:18:19.842Z,17.70
2018-05-13T23:20:47.286Z,17.70
2018-05-13T23:23:14.270Z,17.80
2018-05-13T23:25:42.061Z,17.60
2018-05-13T23:28:09.087Z,17.60
2018-05-13T23:30:36.115Z,17.50
2018-05-13T23:33:03.108Z,17.60
2018-05-13T23:35:30.127Z,17.60
2018-05-13T23:37:57.103Z,17.60
2018-05-13T23:40:24.096Z,17.60
2018-05-13T23:45:18.186Z,17.60
2018-05-13T23:47:45.166Z,17.70
2018-05-13T23:50:12.213Z,17.60
2018-05-13T23:52:39.205Z,17.60
2018-05-13T23:55:06.203Z,17.50
2018-05-13T23:57:33.249Z,17.50
